sensor_id;sensor_type;location;lat;lon;timestamp;temperature;humidity
15930;DHT22;8064;51.142;4.780;2023-04-06T00:01:07;6.00;88.30
15930;DHT22;8064;51.142;4.780;2023-04-06T00:03:34;6.00;88.40
15930;DHT22;8064;51.142;4.780;2023-04-06T00:06:01;5.90;88.30
15930;DHT22;8064;51.142;4.780;2023-04-06T00:08:26;5.90;88.40
15930;DHT22;8064;51.142;4.780;2023-04-06T00:10:52;5.90;88.50
15930;DHT22;8064;51.142;4.780;2023-04-06T00:13:18;5.90;88.50
15930;DHT22;8064;51.142;4.780;2023-04-06T00:15:44;5.90;88.70
15930;DHT22;8064;51.142;4.780;2023-04-06T00:18:10;5.80;88.70
15930;DHT22;8064;51.142;4.780;2023-04-06T00:20:36;5.80;88.90
15930;DHT22;8064;51.142;4.780;2023-04-06T00:23:02;5.80;89.10
15930;DHT22;8064;51.142;4.780;2023-04-06T00:25:28;5.70;89.20
15930;DHT22;8064;51.142;4.780;2023-04-06T00:27:53;5.70;89.30
15930;DHT22;8064;51.142;4.780;2023-04-06T00:30:20;5.70;89.50
15930;DHT22;8064;51.142;4.780;2023-04-06T00:32:45;5.70;89.60
15930;DHT22;8064;51.142;4.780;2023-04-06T00:35:11;5.70;89.70
15930;DHT22;8064;51.142;4.780;2023-04-06T00:37:37;5.70;89.80
15930;DHT22;8064;51.142;4.780;2023-04-06T00:40:03;5.70;90.00
15930;DHT22;8064;51.142;4.780;2023-04-06T00:42:29;5.60;90.00
15930;DHT22;8064;51.142;4.780;2023-04-06T00:44:57;5.60;90.00
15930;DHT22;8064;51.142;4.780;2023-04-06T00:47:23;5.60;90.10
15930;DHT22;8064;51.142;4.780;2023-04-06T00:49:51;5.60;90.20
15930;DHT22;8064;51.142;4.780;2023-04-06T00:52:17;5.60;90.20
15930;DHT22;8064;51.142;4.780;2023-04-06T00:54:44;5.60;90.60
15930;DHT22;8064;51.142;4.780;2023-04-06T00:57:11;5.60;90.30
15930;DHT22;8064;51.142;4.780;2023-04-06T00:59:38;5.60;90.40
15930;DHT22;8064;51.142;4.780;2023-04-06T01:02:03;5.50;90.40
15930;DHT22;8064;51.142;4.780;2023-04-06T01:04:30;5.50;90.50
15930;DHT22;8064;51.142;4.780;2023-04-06T01:06:56;5.50;90.50
15930;DHT22;8064;51.142;4.780;2023-04-06T01:09:22;5.50;90.60
15930;DHT22;8064;51.142;4.780;2023-04-06T01:11:48;5.50;90.60
15930;DHT22;8064;51.142;4.780;2023-04-06T01:14:13;5.50;90.60
15930;DHT22;8064;51.142;4.780;2023-04-06T01:16:40;5.50;90.60
15930;DHT22;8064;51.142;4.780;2023-04-06T01:19:17;5.50;90.60
15930;DHT22;8064;51.142;4.780;2023-04-06T01:21:43;5.50;90.70
15930;DHT22;8064;51.142;4.780;2023-04-06T01:24:09;5.50;90.70
15930;DHT22;8064;51.142;4.780;2023-04-06T01:26:36;5.50;90.70
15930;DHT22;8064;51.142;4.780;2023-04-06T01:29:03;5.50;90.70
15930;DHT22;8064;51.142;4.780;2023-04-06T01:31:29;5.50;90.80
15930;DHT22;8064;51.142;4.780;2023-04-06T01:33:55;5.50;90.80
15930;DHT22;8064;51.142;4.780;2023-04-06T01:36:21;5.50;90.80
15930;DHT22;8064;51.142;4.780;2023-04-06T01:38:47;5.50;90.80
15930;DHT22;8064;51.142;4.780;2023-04-06T01:41:13;5.50;90.80
15930;DHT22;8064;51.142;4.780;2023-04-06T01:43:38;5.50;90.90
15930;DHT22;8064;51.142;4.780;2023-04-06T01:46:04;5.60;90.90
15930;DHT22;8064;51.142;4.780;2023-04-06T01:48:31;5.60;90.90
15930;DHT22;8064;51.142;4.780;2023-04-06T01:50:57;5.60;90.90
15930;DHT22;8064;51.142;4.780;2023-04-06T01:53:22;5.60;90.90
15930;DHT22;8064;51.142;4.780;2023-04-06T01:55:48;5.60;90.90
15930;DHT22;8064;51.142;4.780;2023-04-06T01:58:14;5.60;90.90
15930;DHT22;8064;51.142;4.780;2023-04-06T02:00:40;5.60;90.80
15930;DHT22;8064;51.142;4.780;2023-04-06T02:03:06;5.60;90.80
15930;DHT22;8064;51.142;4.780;2023-04-06T02:05:33;5.60;90.80
15930;DHT22;8064;51.142;4.780;2023-04-06T02:08:04;5.60;90.90
15930;DHT22;8064;51.142;4.780;2023-04-06T02:10:31;5.60;90.90
15930;DHT22;8064;51.142;4.780;2023-04-06T02:12:57;5.60;90.90
15930;DHT22;8064;51.142;4.780;2023-04-06T02:15:23;5.70;91.00
15930;DHT22;8064;51.142;4.780;2023-04-06T02:17:48;5.70;91.00
15930;DHT22;8064;51.142;4.780;2023-04-06T02:20:14;5.70;91.00
15930;DHT22;8064;51.142;4.780;2023-04-06T02:22:40;5.70;91.00
15930;DHT22;8064;51.142;4.780;2023-04-06T02:25:06;5.70;91.00
15930;DHT22;8064;51.142;4.780;2023-04-06T02:27:32;5.70;91.10
15930;DHT22;8064;51.142;4.780;2023-04-06T02:29:58;5.70;91.10
15930;DHT22;8064;51.142;4.780;2023-04-06T02:32:24;5.70;91.20
15930;DHT22;8064;51.142;4.780;2023-04-06T02:34:50;5.70;91.20
15930;DHT22;8064;51.142;4.780;2023-04-06T02:37:15;5.70;91.20
15930;DHT22;8064;51.142;4.780;2023-04-06T02:39:41;5.70;91.20
15930;DHT22;8064;51.142;4.780;2023-04-06T02:42:07;5.70;91.20
15930;DHT22;8064;51.142;4.780;2023-04-06T02:44:34;5.70;91.20
15930;DHT22;8064;51.142;4.780;2023-04-06T02:47:00;5.70;91.20
15930;DHT22;8064;51.142;4.780;2023-04-06T02:49:26;5.70;91.20
15930;DHT22;8064;51.142;4.780;2023-04-06T02:51:51;5.70;91.30
15930;DHT22;8064;51.142;4.780;2023-04-06T02:54:17;5.70;91.30
15930;DHT22;8064;51.142;4.780;2023-04-06T02:56:43;5.70;91.30
15930;DHT22;8064;51.142;4.780;2023-04-06T02:59:09;5.60;91.30
15930;DHT22;8064;51.142;4.780;2023-04-06T03:01:36;5.60;91.40
15930;DHT22;8064;51.142;4.780;2023-04-06T03:04:02;5.60;91.40
15930;DHT22;8064;51.142;4.780;2023-04-06T03:06:28;5.60;91.50
15930;DHT22;8064;51.142;4.780;2023-04-06T03:08:54;5.60;91.50
15930;DHT22;8064;51.142;4.780;2023-04-06T03:11:20;5.60;91.50
15930;DHT22;8064;51.142;4.780;2023-04-06T03:13:46;5.60;91.60
15930;DHT22;8064;51.142;4.780;2023-04-06T03:16:12;5.70;91.60
15930;DHT22;8064;51.142;4.780;2023-04-06T03:18:37;5.70;91.60
15930;DHT22;8064;51.142;4.780;2023-04-06T03:21:03;5.70;91.60
15930;DHT22;8064;51.142;4.780;2023-04-06T03:23:29;5.70;91.60
15930;DHT22;8064;51.142;4.780;2023-04-06T03:25:55;5.70;91.60
15930;DHT22;8064;51.142;4.780;2023-04-06T03:28:21;5.70;91.60
15930;DHT22;8064;51.142;4.780;2023-04-06T03:30:46;5.70;91.60
15930;DHT22;8064;51.142;4.780;2023-04-06T03:33:12;5.80;91.70
15930;DHT22;8064;51.142;4.780;2023-04-06T03:35:38;5.80;92.10
15930;DHT22;8064;51.142;4.780;2023-04-06T03:38:04;5.80;91.80
15930;DHT22;8064;51.142;4.780;2023-04-06T03:40:31;5.80;91.80
15930;DHT22;8064;51.142;4.780;2023-04-06T03:42:57;5.80;91.80
15930;DHT22;8064;51.142;4.780;2023-04-06T03:45:23;5.80;91.80
15930;DHT22;8064;51.142;4.780;2023-04-06T03:47:48;5.80;91.80
15930;DHT22;8064;51.142;4.780;2023-04-06T03:50:14;5.80;91.80
15930;DHT22;8064;51.142;4.780;2023-04-06T03:52:40;5.80;91.80
15930;DHT22;8064;51.142;4.780;2023-04-06T03:55:07;5.80;91.90
15930;DHT22;8064;51.142;4.780;2023-04-06T03:57:32;5.80;91.90
15930;DHT22;8064;51.142;4.780;2023-04-06T03:59:58;5.80;91.90
15930;DHT22;8064;51.142;4.780;2023-04-06T04:02:24;5.80;91.90
15930;DHT22;8064;51.142;4.780;2023-04-06T04:04:50;5.80;91.90
15930;DHT22;8064;51.142;4.780;2023-04-06T04:07:16;5.80;92.20
15930;DHT22;8064;51.142;4.780;2023-04-06T04:09:42;5.80;91.90
15930;DHT22;8064;51.142;4.780;2023-04-06T04:12:07;5.80;91.90
15930;DHT22;8064;51.142;4.780;2023-04-06T04:14:33;5.90;91.90
15930;DHT22;8064;51.142;4.780;2023-04-06T04:16:59;5.90;92.30
15930;DHT22;8064;51.142;4.780;2023-04-06T04:19:25;5.90;91.90
15930;DHT22;8064;51.142;4.780;2023-04-06T04:21:51;5.90;91.90
15930;DHT22;8064;51.142;4.780;2023-04-06T04:24:17;5.90;91.90
15930;DHT22;8064;51.142;4.780;2023-04-06T04:26:42;6.00;92.00
15930;DHT22;8064;51.142;4.780;2023-04-06T04:29:08;6.00;91.90
15930;DHT22;8064;51.142;4.780;2023-04-06T04:31:34;6.00;91.90
15930;DHT22;8064;51.142;4.780;2023-04-06T04:34:00;6.00;92.00
15930;DHT22;8064;51.142;4.780;2023-04-06T04:36:27;6.10;92.30
15930;DHT22;8064;51.142;4.780;2023-04-06T04:38:52;6.00;91.90
15930;DHT22;8064;51.142;4.780;2023-04-06T04:41:18;6.00;91.90
15930;DHT22;8064;51.142;4.780;2023-04-06T04:43:44;6.00;91.90
15930;DHT22;8064;51.142;4.780;2023-04-06T04:46:11;6.00;91.90
15930;DHT22;8064;51.142;4.780;2023-04-06T04:48:37;6.00;92.00
15930;DHT22;8064;51.142;4.780;2023-04-06T04:51:04;6.10;92.20
15930;DHT22;8064;51.142;4.780;2023-04-06T04:53:30;6.10;92.20
15930;DHT22;8064;51.142;4.780;2023-04-06T04:55:56;6.20;92.20
15930;DHT22;8064;51.142;4.780;2023-04-06T04:58:21;6.20;92.10
15930;DHT22;8064;51.142;4.780;2023-04-06T05:00:47;6.20;92.00
15930;DHT22;8064;51.142;4.780;2023-04-06T05:03:20;6.30;92.00
15930;DHT22;8064;51.142;4.780;2023-04-06T05:05:47;6.30;92.00
15930;DHT22;8064;51.142;4.780;2023-04-06T05:08:13;6.40;92.00
15930;DHT22;8064;51.142;4.780;2023-04-06T05:10:38;6.40;92.00
15930;DHT22;8064;51.142;4.780;2023-04-06T05:13:04;6.40;92.00
15930;DHT22;8064;51.142;4.780;2023-04-06T05:15:31;6.50;92.00
15930;DHT22;8064;51.142;4.780;2023-04-06T05:17:57;6.50;92.00
15930;DHT22;8064;51.142;4.780;2023-04-06T05:20:22;6.60;92.00
15930;DHT22;8064;51.142;4.780;2023-04-06T05:22:48;6.60;91.90
15930;DHT22;8064;51.142;4.780;2023-04-06T05:25:14;6.60;91.80
15930;DHT22;8064;51.142;4.780;2023-04-06T05:27:41;6.60;91.80
15930;DHT22;8064;51.142;4.780;2023-04-06T05:30:07;6.70;91.80
15930;DHT22;8064;51.142;4.780;2023-04-06T05:32:33;6.70;91.70
15930;DHT22;8064;51.142;4.780;2023-04-06T05:34:59;6.70;91.80
15930;DHT22;8064;51.142;4.780;2023-04-06T05:37:25;6.70;91.70
15930;DHT22;8064;51.142;4.780;2023-04-06T05:39:51;6.80;91.80
15930;DHT22;8064;51.142;4.780;2023-04-06T05:42:17;6.80;91.80
15930;DHT22;8064;51.142;4.780;2023-04-06T05:44:43;6.80;91.80
15930;DHT22;8064;51.142;4.780;2023-04-06T05:47:08;6.80;91.90
15930;DHT22;8064;51.142;4.780;2023-04-06T05:49:34;6.80;91.90
15930;DHT22;8064;51.142;4.780;2023-04-06T05:52:00;6.80;92.30
15930;DHT22;8064;51.142;4.780;2023-04-06T05:54:26;6.80;92.00
15930;DHT22;8064;51.142;4.780;2023-04-06T05:56:52;6.80;92.00
15930;DHT22;8064;51.142;4.780;2023-04-06T05:59:18;6.80;92.00
15930;DHT22;8064;51.142;4.780;2023-04-06T06:01:44;6.80;92.10
15930;DHT22;8064;51.142;4.780;2023-04-06T06:04:10;6.80;92.10
15930;DHT22;8064;51.142;4.780;2023-04-06T06:06:36;6.90;92.10
15930;DHT22;8064;51.142;4.780;2023-04-06T06:09:02;6.90;92.10
15930;DHT22;8064;51.142;4.780;2023-04-06T06:11:29;7.00;92.10
15930;DHT22;8064;51.142;4.780;2023-04-06T06:13:55;7.00;92.10
15930;DHT22;8064;51.142;4.780;2023-04-06T06:16:22;7.10;92.20
15930;DHT22;8064;51.142;4.780;2023-04-06T06:18:48;7.10;92.20
15930;DHT22;8064;51.142;4.780;2023-04-06T06:21:14;7.20;92.20
15930;DHT22;8064;51.142;4.780;2023-04-06T06:23:42;7.20;92.20
15930;DHT22;8064;51.142;4.780;2023-04-06T06:26:08;7.30;92.30
15930;DHT22;8064;51.142;4.780;2023-04-06T06:28:34;7.40;92.30
15930;DHT22;8064;51.142;4.780;2023-04-06T06:31:00;7.50;92.40
15930;DHT22;8064;51.142;4.780;2023-04-06T06:33:26;7.60;92.40
15930;DHT22;8064;51.142;4.780;2023-04-06T06:35:52;7.70;92.30
15930;DHT22;8064;51.142;4.780;2023-04-06T06:38:18;7.80;92.30
15930;DHT22;8064;51.142;4.780;2023-04-06T06:40:45;7.90;92.40
15930;DHT22;8064;51.142;4.780;2023-04-06T06:43:11;8.00;92.40
15930;DHT22;8064;51.142;4.780;2023-04-06T06:45:37;8.10;92.40
15930;DHT22;8064;51.142;4.780;2023-04-06T06:48:03;8.20;92.40
15930;DHT22;8064;51.142;4.780;2023-04-06T06:50:29;8.30;92.30
15930;DHT22;8064;51.142;4.780;2023-04-06T06:52:55;8.40;92.20
15930;DHT22;8064;51.142;4.780;2023-04-06T06:55:21;8.40;92.20
15930;DHT22;8064;51.142;4.780;2023-04-06T06:57:46;8.50;92.20
15930;DHT22;8064;51.142;4.780;2023-04-06T07:00:13;8.60;92.10
15930;DHT22;8064;51.142;4.780;2023-04-06T07:02:39;8.60;92.10
15930;DHT22;8064;51.142;4.780;2023-04-06T07:05:06;8.70;92.10
15930;DHT22;8064;51.142;4.780;2023-04-06T07:07:32;8.70;92.00
15930;DHT22;8064;51.142;4.780;2023-04-06T07:09:59;8.80;92.00
15930;DHT22;8064;51.142;4.780;2023-04-06T07:12:25;8.80;91.90
15930;DHT22;8064;51.142;4.780;2023-04-06T07:14:51;8.80;91.90
15930;DHT22;8064;51.142;4.780;2023-04-06T07:17:17;8.80;91.90
15930;DHT22;8064;51.142;4.780;2023-04-06T07:19:43;8.80;91.90
15930;DHT22;8064;51.142;4.780;2023-04-06T07:22:09;8.90;92.00
15930;DHT22;8064;51.142;4.780;2023-04-06T07:24:34;8.90;92.00
15930;DHT22;8064;51.142;4.780;2023-04-06T07:27:00;8.90;92.00
15930;DHT22;8064;51.142;4.780;2023-04-06T07:29:27;8.90;92.00
15930;DHT22;8064;51.142;4.780;2023-04-06T07:31:53;9.00;92.10
15930;DHT22;8064;51.142;4.780;2023-04-06T07:34:20;9.10;92.10
15930;DHT22;8064;51.142;4.780;2023-04-06T07:36:46;9.10;92.00
15930;DHT22;8064;51.142;4.780;2023-04-06T07:39:12;9.20;92.00
15930;DHT22;8064;51.142;4.780;2023-04-06T07:41:38;9.20;91.90
15930;DHT22;8064;51.142;4.780;2023-04-06T07:44:04;9.30;92.00
15930;DHT22;8064;51.142;4.780;2023-04-06T07:46:30;9.30;91.90
15930;DHT22;8064;51.142;4.780;2023-04-06T07:48:57;9.40;92.00
15930;DHT22;8064;51.142;4.780;2023-04-06T07:51:23;9.40;92.00
15930;DHT22;8064;51.142;4.780;2023-04-06T07:53:50;9.40;92.10
15930;DHT22;8064;51.142;4.780;2023-04-06T07:56:16;9.40;92.20
15930;DHT22;8064;51.142;4.780;2023-04-06T07:58:42;9.40;92.40
15930;DHT22;8064;51.142;4.780;2023-04-06T08:01:08;9.40;92.60
15930;DHT22;8064;51.142;4.780;2023-04-06T08:03:34;9.40;92.70
15930;DHT22;8064;51.142;4.780;2023-04-06T08:06:01;9.30;92.90
15930;DHT22;8064;51.142;4.780;2023-04-06T08:08:27;9.30;93.10
15930;DHT22;8064;51.142;4.780;2023-04-06T08:10:53;9.40;93.30
15930;DHT22;8064;51.142;4.780;2023-04-06T08:13:19;9.30;93.50
15930;DHT22;8064;51.142;4.780;2023-04-06T08:15:45;9.40;93.70
15930;DHT22;8064;51.142;4.780;2023-04-06T08:18:12;9.40;93.80
15930;DHT22;8064;51.142;4.780;2023-04-06T08:20:38;9.30;93.90
15930;DHT22;8064;51.142;4.780;2023-04-06T08:23:04;9.30;94.00
15930;DHT22;8064;51.142;4.780;2023-04-06T08:25:30;9.40;94.30
15930;DHT22;8064;51.142;4.780;2023-04-06T08:27:56;9.40;94.40
15930;DHT22;8064;51.142;4.780;2023-04-06T08:30:22;9.40;94.80
15930;DHT22;8064;51.142;4.780;2023-04-06T08:32:48;9.50;94.70
15930;DHT22;8064;51.142;4.780;2023-04-06T08:35:13;9.50;94.80
15930;DHT22;8064;51.142;4.780;2023-04-06T08:37:39;9.50;95.00
15930;DHT22;8064;51.142;4.780;2023-04-06T08:40:07;9.50;95.10
15930;DHT22;8064;51.142;4.780;2023-04-06T08:42:40;9.50;95.20
15930;DHT22;8064;51.142;4.780;2023-04-06T08:45:08;9.60;95.50
15930;DHT22;8064;51.142;4.780;2023-04-06T08:47:36;9.60;95.50
15930;DHT22;8064;51.142;4.780;2023-04-06T08:50:04;9.60;95.70
15930;DHT22;8064;51.142;4.780;2023-04-06T08:52:32;9.60;95.80
15930;DHT22;8064;51.142;4.780;2023-04-06T08:54:59;9.60;95.90
15930;DHT22;8064;51.142;4.780;2023-04-06T08:57:26;9.50;96.00
15930;DHT22;8064;51.142;4.780;2023-04-06T08:59:52;9.50;96.10
15930;DHT22;8064;51.142;4.780;2023-04-06T09:02:19;9.50;96.30
15930;DHT22;8064;51.142;4.780;2023-04-06T09:04:48;9.60;96.40
15930;DHT22;8064;51.142;4.780;2023-04-06T09:07:15;9.60;96.60
15930;DHT22;8064;51.142;4.780;2023-04-06T09:09:41;9.60;96.70
15930;DHT22;8064;51.142;4.780;2023-04-06T09:12:31;9.70;97.20
15930;DHT22;8064;51.142;4.780;2023-04-06T09:14:58;9.70;97.10
15930;DHT22;8064;51.142;4.780;2023-04-06T09:17:25;9.80;97.10
15930;DHT22;8064;51.142;4.780;2023-04-06T09:19:51;9.80;97.30
15930;DHT22;8064;51.142;4.780;2023-04-06T09:22:18;9.80;97.30
15930;DHT22;8064;51.142;4.780;2023-04-06T09:25:03;9.80;97.40
15930;DHT22;8064;51.142;4.780;2023-04-06T09:27:42;9.90;97.70
15930;DHT22;8064;51.142;4.780;2023-04-06T09:30:11;9.90;97.70
15930;DHT22;8064;51.142;4.780;2023-04-06T09:32:58;9.90;97.80
15930;DHT22;8064;51.142;4.780;2023-04-06T09:35:25;9.90;98.00
15930;DHT22;8064;51.142;4.780;2023-04-06T09:37:53;9.90;98.00
15930;DHT22;8064;51.142;4.780;2023-04-06T09:40:19;9.90;98.50
15930;DHT22;8064;51.142;4.780;2023-04-06T09:42:47;9.90;98.20
15930;DHT22;8064;51.142;4.780;2023-04-06T09:45:13;10.00;97.90
15930;DHT22;8064;51.142;4.780;2023-04-06T09:47:42;10.00;98.00
15930;DHT22;8064;51.142;4.780;2023-04-06T09:50:11;10.00;98.20
15930;DHT22;8064;51.142;4.780;2023-04-06T09:52:41;10.00;98.30
15930;DHT22;8064;51.142;4.780;2023-04-06T09:55:08;10.00;98.40
15930;DHT22;8064;51.142;4.780;2023-04-06T10:00:17;10.10;98.70
15930;DHT22;8064;51.142;4.780;2023-04-06T10:02:48;10.10;98.80
15930;DHT22;8064;51.142;4.780;2023-04-06T10:05:20;10.10;98.80
15930;DHT22;8064;51.142;4.780;2023-04-06T10:07:49;10.10;98.90
15930;DHT22;8064;51.142;4.780;2023-04-06T10:10:17;10.10;99.00
15930;DHT22;8064;51.142;4.780;2023-04-06T10:12:43;10.10;99.00
15930;DHT22;8064;51.142;4.780;2023-04-06T10:15:10;10.10;99.10
15930;DHT22;8064;51.142;4.780;2023-04-06T10:17:36;10.20;99.20
15930;DHT22;8064;51.142;4.780;2023-04-06T10:20:20;10.20;99.30
15930;DHT22;8064;51.142;4.780;2023-04-06T10:23:09;10.20;99.50
15930;DHT22;8064;51.142;4.780;2023-04-06T10:25:52;10.20;99.50
15930;DHT22;8064;51.142;4.780;2023-04-06T10:28:19;10.10;99.50
15930;DHT22;8064;51.142;4.780;2023-04-06T10:30:45;10.10;99.50
15930;DHT22;8064;51.142;4.780;2023-04-06T10:35:58;10.20;99.80
15930;DHT22;8064;51.142;4.780;2023-04-06T10:38:36;10.20;99.80
15930;DHT22;8064;51.142;4.780;2023-04-06T10:41:05;10.20;99.90
15930;DHT22;8064;51.142;4.780;2023-04-06T10:43:34;10.30;99.90
15930;DHT22;8064;51.142;4.780;2023-04-06T10:46:02;10.30;99.90
15930;DHT22;8064;51.142;4.780;2023-04-06T10:48:40;10.30;99.90
15930;DHT22;8064;51.142;4.780;2023-04-06T10:51:25;10.40;99.90
15930;DHT22;8064;51.142;4.780;2023-04-06T10:53:53;10.50;99.90
15930;DHT22;8064;51.142;4.780;2023-04-06T10:56:23;10.50;99.90
15930;DHT22;8064;51.142;4.780;2023-04-06T10:58:52;10.60;99.90
15930;DHT22;8064;51.142;4.780;2023-04-06T11:01:19;10.60;99.90
15930;DHT22;8064;51.142;4.780;2023-04-06T11:03:47;10.50;99.90
15930;DHT22;8064;51.142;4.780;2023-04-06T11:06:31;10.50;99.90
15930;DHT22;8064;51.142;4.780;2023-04-06T11:08:58;10.50;99.90
15930;DHT22;8064;51.142;4.780;2023-04-06T11:11:25;10.50;99.90
15930;DHT22;8064;51.142;4.780;2023-04-06T11:13:54;10.50;99.90
15930;DHT22;8064;51.142;4.780;2023-04-06T11:16:23;10.40;99.90
15930;DHT22;8064;51.142;4.780;2023-04-06T11:19:04;10.40;99.90
15930;DHT22;8064;51.142;4.780;2023-04-06T11:21:44;10.40;99.90
15930;DHT22;8064;51.142;4.780;2023-04-06T11:24:23;10.30;99.90
15930;DHT22;8064;51.142;4.780;2023-04-06T11:26:50;10.30;99.90
15930;DHT22;8064;51.142;4.780;2023-04-06T11:29:18;10.20;99.90
15930;DHT22;8064;51.142;4.780;2023-04-06T11:31:47;10.20;99.90
15930;DHT22;8064;51.142;4.780;2023-04-06T11:34:16;10.20;99.90
15930;DHT22;8064;51.142;4.780;2023-04-06T11:36:44;10.10;99.90
15930;DHT22;8064;51.142;4.780;2023-04-06T11:39:10;10.10;99.90
15930;DHT22;8064;51.142;4.780;2023-04-06T11:41:36;10.10;99.90
15930;DHT22;8064;51.142;4.780;2023-04-06T11:44:03;10.10;99.90
15930;DHT22;8064;51.142;4.780;2023-04-06T11:46:29;10.10;99.90
15930;DHT22;8064;51.142;4.780;2023-04-06T11:49:14;10.10;99.90
15930;DHT22;8064;51.142;4.780;2023-04-06T11:51:42;10.20;99.90
15930;DHT22;8064;51.142;4.780;2023-04-06T11:54:09;10.20;99.90
15930;DHT22;8064;51.142;4.780;2023-04-06T11:56:35;10.20;99.90
15930;DHT22;8064;51.142;4.780;2023-04-06T11:59:02;10.30;99.90
15930;DHT22;8064;51.142;4.780;2023-04-06T12:01:29;10.30;99.90
15930;DHT22;8064;51.142;4.780;2023-04-06T12:03:54;10.30;99.90
15930;DHT22;8064;51.142;4.780;2023-04-06T12:06:20;10.30;99.90
15930;DHT22;8064;51.142;4.780;2023-04-06T12:08:46;10.30;99.90
15930;DHT22;8064;51.142;4.780;2023-04-06T12:11:12;10.30;99.90
15930;DHT22;8064;51.142;4.780;2023-04-06T12:13:38;10.30;99.90
15930;DHT22;8064;51.142;4.780;2023-04-06T12:16:04;10.30;99.90
15930;DHT22;8064;51.142;4.780;2023-04-06T12:18:31;10.30;99.90
15930;DHT22;8064;51.142;4.780;2023-04-06T12:20:56;10.30;99.90
15930;DHT22;8064;51.142;4.780;2023-04-06T12:23:22;10.30;99.90
15930;DHT22;8064;51.142;4.780;2023-04-06T12:25:48;10.20;99.90
15930;DHT22;8064;51.142;4.780;2023-04-06T12:28:14;10.20;99.90
15930;DHT22;8064;51.142;4.780;2023-04-06T12:30:39;10.20;99.90
15930;DHT22;8064;51.142;4.780;2023-04-06T12:33:06;10.20;99.90
15930;DHT22;8064;51.142;4.780;2023-04-06T12:35:33;10.20;99.90
15930;DHT22;8064;51.142;4.780;2023-04-06T12:38:00;10.20;99.90
15930;DHT22;8064;51.142;4.780;2023-04-06T12:40:25;10.20;99.90
15930;DHT22;8064;51.142;4.780;2023-04-06T12:42:51;10.20;99.90
15930;DHT22;8064;51.142;4.780;2023-04-06T12:45:17;10.20;99.90
15930;DHT22;8064;51.142;4.780;2023-04-06T12:47:43;10.30;99.90
15930;DHT22;8064;51.142;4.780;2023-04-06T12:50:09;10.30;99.90
15930;DHT22;8064;51.142;4.780;2023-04-06T12:52:35;10.30;99.90
15930;DHT22;8064;51.142;4.780;2023-04-06T12:55:02;10.30;99.90
15930;DHT22;8064;51.142;4.780;2023-04-06T12:57:28;10.30;99.90
15930;DHT22;8064;51.142;4.780;2023-04-06T12:59:55;10.30;99.90
15930;DHT22;8064;51.142;4.780;2023-04-06T13:02:21;10.30;99.90
15930;DHT22;8064;51.142;4.780;2023-04-06T13:04:48;10.30;99.90
15930;DHT22;8064;51.142;4.780;2023-04-06T13:07:15;10.30;99.90
15930;DHT22;8064;51.142;4.780;2023-04-06T13:09:40;10.30;99.90
15930;DHT22;8064;51.142;4.780;2023-04-06T13:12:06;10.30;99.90
15930;DHT22;8064;51.142;4.780;2023-04-06T13:14:32;10.30;99.90
15930;DHT22;8064;51.142;4.780;2023-04-06T13:16:58;10.30;99.90
15930;DHT22;8064;51.142;4.780;2023-04-06T13:19:24;10.30;99.90
15930;DHT22;8064;51.142;4.780;2023-04-06T13:21:50;10.30;99.90
15930;DHT22;8064;51.142;4.780;2023-04-06T13:24:16;10.30;99.90
15930;DHT22;8064;51.142;4.780;2023-04-06T13:26:41;10.40;99.90
15930;DHT22;8064;51.142;4.780;2023-04-06T13:29:07;10.40;99.90
15930;DHT22;8064;51.142;4.780;2023-04-06T13:31:33;10.40;99.90
15930;DHT22;8064;51.142;4.780;2023-04-06T13:33:59;10.40;99.90
15930;DHT22;8064;51.142;4.780;2023-04-06T13:36:25;10.40;99.90
15930;DHT22;8064;51.142;4.780;2023-04-06T13:38:52;10.40;99.90
15930;DHT22;8064;51.142;4.780;2023-04-06T13:41:20;10.40;99.90
15930;DHT22;8064;51.142;4.780;2023-04-06T13:43:46;10.40;99.90
15930;DHT22;8064;51.142;4.780;2023-04-06T13:46:12;10.40;99.90
15930;DHT22;8064;51.142;4.780;2023-04-06T13:48:38;10.40;99.90
15930;DHT22;8064;51.142;4.780;2023-04-06T13:51:17;10.40;99.90
15930;DHT22;8064;51.142;4.780;2023-04-06T13:53:43;10.40;99.90
15930;DHT22;8064;51.142;4.780;2023-04-06T13:56:09;10.40;99.90
15930;DHT22;8064;51.142;4.780;2023-04-06T13:58:35;10.30;99.90
15930;DHT22;8064;51.142;4.780;2023-04-06T14:01:04;10.30;99.90
15930;DHT22;8064;51.142;4.780;2023-04-06T14:03:30;10.30;99.90
15930;DHT22;8064;51.142;4.780;2023-04-06T14:05:56;10.20;99.90
15930;DHT22;8064;51.142;4.780;2023-04-06T14:08:21;10.20;99.90
15930;DHT22;8064;51.142;4.780;2023-04-06T14:10:47;10.20;99.90
15930;DHT22;8064;51.142;4.780;2023-04-06T14:13:13;10.20;99.90
15930;DHT22;8064;51.142;4.780;2023-04-06T14:15:39;10.20;99.90
15930;DHT22;8064;51.142;4.780;2023-04-06T14:18:04;10.20;99.90
15930;DHT22;8064;51.142;4.780;2023-04-06T14:20:32;10.20;99.90
15930;DHT22;8064;51.142;4.780;2023-04-06T14:23:00;10.20;99.90
15930;DHT22;8064;51.142;4.780;2023-04-06T14:25:25;10.20;99.90
15930;DHT22;8064;51.142;4.780;2023-04-06T14:27:51;10.20;99.90
15930;DHT22;8064;51.142;4.780;2023-04-06T14:30:17;10.20;99.90
15930;DHT22;8064;51.142;4.780;2023-04-06T14:32:43;10.20;99.90
15930;DHT22;8064;51.142;4.780;2023-04-06T14:35:10;10.20;99.90
15930;DHT22;8064;51.142;4.780;2023-04-06T14:37:35;10.20;99.90
15930;DHT22;8064;51.142;4.780;2023-04-06T14:40:02;10.20;99.90
15930;DHT22;8064;51.142;4.780;2023-04-06T14:42:28;10.20;99.90
15930;DHT22;8064;51.142;4.780;2023-04-06T14:44:54;10.20;99.90
15930;DHT22;8064;51.142;4.780;2023-04-06T14:47:20;10.20;99.90
15930;DHT22;8064;51.142;4.780;2023-04-06T14:49:50;10.20;99.90
15930;DHT22;8064;51.142;4.780;2023-04-06T14:52:16;10.20;99.90
15930;DHT22;8064;51.142;4.780;2023-04-06T14:54:42;10.30;99.90
15930;DHT22;8064;51.142;4.780;2023-04-06T14:57:08;10.30;99.90
15930;DHT22;8064;51.142;4.780;2023-04-06T14:59:34;10.30;99.90
15930;DHT22;8064;51.142;4.780;2023-04-06T15:02:01;10.30;99.90
15930;DHT22;8064;51.142;4.780;2023-04-06T15:04:28;10.30;99.90
15930;DHT22;8064;51.142;4.780;2023-04-06T15:06:55;10.40;99.90
15930;DHT22;8064;51.142;4.780;2023-04-06T15:09:21;10.40;99.90
15930;DHT22;8064;51.142;4.780;2023-04-06T15:11:47;10.50;99.90
15930;DHT22;8064;51.142;4.780;2023-04-06T15:14:12;10.50;99.90
15930;DHT22;8064;51.142;4.780;2023-04-06T15:16:38;10.50;99.90
15930;DHT22;8064;51.142;4.780;2023-04-06T15:19:04;10.50;99.90
15930;DHT22;8064;51.142;4.780;2023-04-06T15:21:30;10.40;99.90
15930;DHT22;8064;51.142;4.780;2023-04-06T15:23:56;10.40;99.90
15930;DHT22;8064;51.142;4.780;2023-04-06T15:26:22;10.40;99.90
15930;DHT22;8064;51.142;4.780;2023-04-06T15:28:48;10.40;99.90
15930;DHT22;8064;51.142;4.780;2023-04-06T15:31:15;10.40;99.90
15930;DHT22;8064;51.142;4.780;2023-04-06T15:33:41;10.40;99.90
15930;DHT22;8064;51.142;4.780;2023-04-06T15:36:25;10.30;99.90
15930;DHT22;8064;51.142;4.780;2023-04-06T15:38:54;10.30;99.90
15930;DHT22;8064;51.142;4.780;2023-04-06T15:41:21;10.30;99.90
15930;DHT22;8064;51.142;4.780;2023-04-06T15:43:47;10.40;99.90
15930;DHT22;8064;51.142;4.780;2023-04-06T15:46:13;10.30;99.90
15930;DHT22;8064;51.142;4.780;2023-04-06T15:48:40;10.40;99.90
15930;DHT22;8064;51.142;4.780;2023-04-06T15:51:06;10.30;99.90
15930;DHT22;8064;51.142;4.780;2023-04-06T15:53:32;10.30;99.90
15930;DHT22;8064;51.142;4.780;2023-04-06T15:56:00;10.40;99.90
15930;DHT22;8064;51.142;4.780;2023-04-06T15:58:27;10.30;99.90